Time;durP1;ratioP1;P1;durP2;ratioP2;P2;SDS_P1;SDS_P2;PMS_P1;PMS_P2;Temp;Humidity;BMP_temperature;BMP_pressure;BME280_temperature;BME280_humidity;BME280_pressure;Samples;Min_cycle;Max_cycle;Signal;HPM_P1;HPM_P2
2022/08/05 00:01:52;;;;;;;8.48;6.63;;;;;;;18.34;98.13;101388.19;4991038;28;20018;-76
2022/08/05 00:04:17;;;;;;;8.20;6.22;;;;;;;18.37;98.34;101395.88;4990299;28;20025;-76
2022/08/05 00:06:43;;;;;;;10.52;6.78;;;;;;;18.27;98.17;101392.44;4990510;28;20506;-76
2022/08/05 00:09:09;;;;;;;11.13;6.60;;;;;;;18.27;97.50;101386.28;4990851;28;20088;-76
2022/08/05 00:11:34;;;;;;;8.10;6.82;;;;;;;18.29;98.61;101384.28;4990823;28;20484;-76
2022/08/05 00:13:59;;;;;;;10.45;7.20;;;;;;;18.16;97.48;101377.50;4990316;28;20519;-77
2022/08/05 00:16:25;;;;;;;15.73;7.25;;;;;;;18.19;97.71;101392.34;5003692;28;20487;-77
2022/08/05 00:18:50;;;;;;;16.27;7.70;;;;;;;18.26;98.52;101397.91;5010482;28;20365;-76
2022/08/05 00:21:16;;;;;;;13.82;8.00;;;;;;;18.23;97.13;101392.91;5009679;28;20484;-77
2022/08/05 00:23:44;;;;;;;11.68;8.18;;;;;;;18.18;98.04;101396.00;5008880;28;20378;-77
2022/08/05 00:26:10;;;;;;;12.02;7.13;;;;;;;18.23;97.07;101388.41;5008665;28;20037;-77
2022/08/05 00:28:36;;;;;;;13.02;8.13;;;;;;;18.22;97.74;101385.88;5009402;28;20046;-76
2022/08/05 00:31:02;;;;;;;12.63;7.90;;;;;;;18.23;98.53;101398.22;5013440;28;20018;-76
2022/08/05 00:33:28;;;;;;;10.68;7.30;;;;;;;18.21;98.30;101400.19;4998678;28;20386;-76
2022/08/05 00:35:53;;;;;;;9.52;7.65;;;;;;;18.29;99.70;101394.94;4994485;28;20022;-78
2022/08/05 00:38:19;;;;;;;9.40;6.97;;;;;;;18.29;99.99;101403.78;4993771;28;20117;-76
2022/08/05 00:40:47;;;;;;;12.52;7.93;;;;;;;18.28;100.00;101411.94;4993944;28;20782;-76
2022/08/05 00:43:13;;;;;;;13.63;7.90;;;;;;;18.26;100.00;101408.56;4993984;28;20030;-76
2022/08/05 00:45:38;;;;;;;15.35;7.97;;;;;;;18.26;99.23;101400.59;4993682;28;20432;-78
2022/08/05 00:48:04;;;;;;;15.23;8.00;;;;;;;18.28;99.28;101390.63;4993701;28;20027;-78
2022/08/05 00:50:29;;;;;;;11.20;8.20;;;;;;;18.30;99.78;101386.81;4993197;28;20109;-76
2022/08/05 00:52:55;;;;;;;11.05;8.20;;;;;;;18.29;100.00;101377.13;4994100;28;20038;-76
2022/08/05 00:55:20;;;;;;;10.70;7.63;;;;;;;18.24;99.22;101391.91;4992870;28;20022;-78
2022/08/05 00:57:46;;;;;;;13.18;7.93;;;;;;;18.28;99.41;101395.94;4994068;28;20030;-76
2022/08/05 01:00:12;;;;;;;16.30;8.25;;;;;;;18.22;99.45;101391.22;4993623;28;20109;-76
2022/08/05 01:02:37;;;;;;;16.42;8.35;;;;;;;18.26;99.36;101398.75;4993105;28;20030;-76
2022/08/05 01:05:02;;;;;;;13.20;7.95;;;;;;;18.24;99.17;101387.41;4992505;28;20026;-76
2022/08/05 01:07:28;;;;;;;10.63;7.93;;;;;;;18.32;99.76;101397.31;4992069;28;20311;-77
2022/08/05 01:09:53;;;;;;;12.00;7.75;;;;;;;18.30;100.00;101415.28;4993300;28;20420;-78
2022/08/05 01:12:20;;;;;;;9.32;7.13;;;;;;;18.31;100.00;101428.44;4993246;28;20026;-77
2022/08/05 01:14:58;;;;;;;12.93;6.90;;;;;;;18.29;99.56;101435.75;4993830;28;20065;-77
2022/08/05 01:17:32;;;;;;;12.10;7.18;;;;;;;18.29;100.00;101442.91;4992592;28;20397;-77
2022/08/05 01:20:07;;;;;;;11.75;7.10;;;;;;;18.29;99.75;101456.22;4993821;28;20396;-77
2022/08/05 01:23:00;;;;;;;11.02;6.43;;;;;;;18.26;99.61;101464.53;4991888;28;20066;-76
2022/08/05 01:25:40;;;;;;;12.82;6.38;;;;;;;18.26;99.15;101480.50;4992722;28;20117;-77
2022/08/05 01:28:14;;;;;;;10.70;6.88;;;;;;;18.31;99.59;101475.56;4998271;28;20046;-77
2022/08/05 01:30:46;;;;;;;15.57;7.00;;;;;;;18.29;100.00;101461.56;5010825;28;20033;-77
2022/08/05 01:33:15;;;;;;;12.27;7.43;;;;;;;18.27;100.00;101458.19;5002001;28;20469;-77
2022/08/05 01:35:44;;;;;;;11.05;6.55;;;;;;;18.28;100.00;101444.72;4991680;28;20026;-77
2022/08/05 01:38:10;;;;;;;12.57;7.20;;;;;;;18.27;99.76;101455.53;4992510;28;20062;-77
2022/08/05 01:40:38;;;;;;;11.38;6.97;;;;;;;18.30;100.00;101461.41;4992821;28;20113;-77
2022/08/05 01:43:05;;;;;;;13.70;6.30;;;;;;;18.31;100.00;101459.59;4992905;28;20054;-77
2022/08/05 01:45:32;;;;;;;11.70;6.82;;;;;;;18.27;100.00;101461.72;4990624;28;20026;-77
2022/08/05 01:48:00;;;;;;;11.60;6.97;;;;;;;18.31;100.00;101470.25;4993258;28;20026;-77
2022/08/05 01:50:29;;;;;;;12.27;7.00;;;;;;;18.35;100.00;101460.97;4992437;28;20030;-75
2022/08/05 01:53:00;;;;;;;12.30;6.53;;;;;;;18.31;100.00;101459.59;4992603;28;20029;-76
2022/08/05 01:55:27;;;;;;;11.57;7.22;;;;;;;18.33;100.00;101457.59;4991007;28;20027;-76
2022/08/05 01:57:56;;;;;;;13.45;7.18;;;;;;;18.38;100.00;101445.50;4992278;28;20030;-76
2022/08/05 02:00:22;;;;;;;10.02;6.97;;;;;;;18.37;100.00;101427.00;4990957;28;20085;-76
2022/08/05 02:02:52;;;;;;;10.52;6.78;;;;;;;18.32;100.00;101407.97;4992810;28;20018;-76
2022/08/05 02:05:19;;;;;;;14.63;7.05;;;;;;;18.25;100.00;101393.59;4991369;28;20105;-76
2022/08/05 02:07:45;;;;;;;13.20;7.05;;;;;;;18.26;100.00;101385.44;4992610;28;20427;-78
2022/08/05 02:10:11;;;;;;;12.23;7.20;;;;;;;18.27;100.00;101395.09;4992224;28;20022;-76
2022/08/05 02:12:50;;;;;;;15.82;7.35;;;;;;;18.26;100.00;101387.25;4990427;28;20472;-77
2022/08/05 02:15:22;;;;;;;11.93;7.05;;;;;;;18.30;100.00;101417.94;4994532;28;20031;-77
2022/08/05 02:18:09;;;;;;;10.73;6.97;;;;;;;18.29;100.00;101434.91;5010751;28;20434;-77
2022/08/05 02:21:23;;;;;;;14.20;6.65;;;;;;;18.27;100.00;101403.09;5009873;28;20037;-77
2022/08/05 02:23:54;;;;;;;11.30;6.72;;;;;;;18.16;100.00;101404.16;4992907;28;20081;-76
2022/08/05 02:26:34;;;;;;;14.50;6.60;;;;;;;18.17;100.00;101424.47;5009492;28;20034;-76
2022/08/05 02:29:01;;;;;;;12.93;6.93;;;;;;;18.17;100.00;101421.81;5010534;28;20056;-77
2022/08/05 02:31:29;;;;;;;12.95;6.70;;;;;;;18.21;99.94;101440.16;5009992;28;20491;-77
2022/08/05 02:34:02;;;;;;;18.15;6.85;;;;;;;18.16;99.51;101440.59;4993553;28;20034;-77
2022/08/05 02:36:31;;;;;;;18.25;6.90;;;;;;;18.20;99.68;101441.97;4991680;28;20084;-77
2022/08/05 02:38:58;;;;;;;15.93;6.10;;;;;;;18.14;98.03;101454.06;4992382;28;20133;-77
2022/08/05 02:41:25;;;;;;;11.98;6.45;;;;;;;18.16;98.13;101451.25;4990988;28;20026;-77
2022/08/05 02:43:51;;;;;;;13.60;6.85;;;;;;;18.15;100.00;101445.09;4992236;28;20503;-77
2022/08/05 02:46:19;;;;;;;12.85;6.57;;;;;;;18.13;99.48;101436.41;4991654;28;20061;-77
2022/08/05 02:48:45;;;;;;;14.95;6.50;;;;;;;18.13;98.16;101428.41;4991471;28;20034;-77
2022/08/05 02:51:13;;;;;;;15.95;7.32;;;;;;;18.09;98.54;101424.38;4991811;28;20395;-77
2022/08/05 02:53:40;;;;;;;15.00;7.15;;;;;;;18.08;98.91;101422.72;4991410;28;20113;-77
2022/08/05 02:56:11;;;;;;;14.48;6.53;;;;;;;18.05;97.95;101417.69;4990216;28;20022;-77
2022/08/05 02:58:40;;;;;;;13.40;6.30;;;;;;;17.97;97.22;101417.56;4991812;28;20033;-77
2022/08/05 03:01:08;;;;;;;14.85;6.40;;;;;;;17.97;97.57;101422.88;4990580;28;20080;-77
2022/08/05 03:03:39;;;;;;;10.50;6.20;;;;;;;18.01;97.82;101418.09;4990333;28;20037;-77
2022/08/05 03:06:05;;;;;;;11.93;6.88;;;;;;;17.95;99.53;101416.84;4991973;28;20026;-77
2022/08/05 03:08:31;;;;;;;12.73;7.00;;;;;;;17.92;98.94;101418.97;4989180;28;20476;-77
2022/08/05 03:10:57;;;;;;;12.98;6.88;;;;;;;17.98;98.61;101411.25;4991621;28;20061;-77
2022/08/05 03:13:22;;;;;;;13.40;6.82;;;;;;;18.01;99.97;101424.28;4990839;28;20065;-77
2022/08/05 03:15:47;;;;;;;14.98;6.75;;;;;;;18.00;98.79;101430.56;4990936;28;20030;-77
2022/08/05 03:18:13;;;;;;;13.63;6.72;;;;;;;18.01;100.00;101434.94;4989708;28;20057;-77
2022/08/05 03:20:39;;;;;;;13.68;6.97;;;;;;;18.04;99.41;101449.78;4990797;28;20026;-77
2022/08/05 03:23:07;;;;;;;12.93;7.30;;;;;;;17.98;100.00;101448.50;4990840;28;20018;-77
2022/08/05 03:25:34;;;;;;;18.40;7.47;;;;;;;17.99;100.00;101439.53;4989204;28;20397;-77
2022/08/05 03:28:01;;;;;;;12.85;6.88;;;;;;;18.02;99.74;101443.75;4996188;28;20516;-77
2022/08/05 03:30:27;;;;;;;13.75;7.45;;;;;;;17.99;99.77;101455.53;5008167;28;20046;-77
2022/08/05 03:32:53;;;;;;;11.32;7.10;;;;;;;17.99;99.27;101454.69;5002520;28;20027;-77
2022/08/05 03:35:19;;;;;;;13.48;6.88;;;;;;;17.97;98.81;101449.50;4989118;28;20056;-78
2022/08/05 03:37:45;;;;;;;15.48;7.18;;;;;;;17.99;98.13;101455.53;4990395;28;20023;-77
2022/08/05 03:40:11;;;;;;;11.93;7.35;;;;;;;17.98;99.11;101453.84;4989518;28;20049;-78
2022/08/05 03:42:38;;;;;;;11.35;6.82;;;;;;;17.96;98.36;101455.81;4989702;28;20753;-77
2022/08/05 03:45:05;;;;;;;12.63;7.00;;;;;;;17.97;99.00;101449.50;4989507;28;20391;-77
2022/08/05 03:47:31;;;;;;;13.40;6.65;;;;;;;18.02;99.10;101447.25;4990364;28;20030;-77
2022/08/05 03:49:56;;;;;;;17.60;7.70;;;;;;;17.95;98.50;101443.50;4989756;28;20026;-77
2022/08/05 03:52:26;;;;;;;12.20;7.05;;;;;;;17.89;97.55;101444.06;4988807;28;20034;-77
2022/08/05 03:54:57;;;;;;;11.35;6.93;;;;;;;17.89;99.09;101444.06;4991091;28;20085;-77
2022/08/05 03:57:28;;;;;;;15.65;6.55;;;;;;;17.92;98.06;101432.28;4988744;28;20037;-78
2022/08/05 04:00:02;;;;;;;13.40;6.57;;;;;;;17.96;98.29;101429.19;4989781;28;20049;-77
2022/08/05 04:02:31;;;;;;;23.30;7.35;;;;;;;17.86;97.54;101423.06;4990464;28;20030;-77
2022/08/05 04:04:58;;;;;;;13.43;6.93;;;;;;;17.90;99.50;101434.25;4991943;28;20044;-77
2022/08/05 04:07:23;;;;;;;13.27;7.25;;;;;;;17.91;100.00;101434.13;4994590;28;20026;-78
2022/08/05 04:09:49;;;;;;;12.73;6.72;;;;;;;17.89;98.83;101430.75;4994993;28;20030;-77
2022/08/05 04:12:14;;;;;;;14.82;7.03;;;;;;;17.85;97.93;101418.72;4992788;28;20109;-77
2022/08/05 04:14:41;;;;;;;13.55;7.45;;;;;;;17.86;98.45;101417.75;4993205;28;20023;-77
2022/08/05 04:17:07;;;;;;;14.57;6.90;;;;;;;17.80;98.01;101421.84;4995040;28;20018;-77
2022/08/05 04:19:41;;;;;;;12.80;7.40;;;;;;;17.75;99.55;101425.94;4993795;28;20030;-77
2022/08/05 04:22:07;;;;;;;15.70;7.25;;;;;;;17.74;99.07;101429.56;4994839;28;20030;-77
2022/08/05 04:24:32;;;;;;;15.25;7.65;;;;;;;17.71;98.39;101429.88;4994068;28;20052;-77
2022/08/05 04:26:57;;;;;;;13.20;7.05;;;;;;;17.69;98.01;101418.53;4993863;28;20034;-76
2022/08/05 04:29:22;;;;;;;14.18;6.60;;;;;;;17.66;97.47;101411.66;5010054;28;20085;-79
2022/08/05 04:31:48;;;;;;;13.93;7.40;;;;;;;17.67;99.60;101417.84;5013938;28;20156;-77
2022/08/05 04:34:13;;;;;;;13.25;7.30;;;;;;;17.68;98.46;101427.50;4994228;28;20026;-77
2022/08/05 04:36:38;;;;;;;14.98;6.82;;;;;;;17.69;98.07;101427.34;4994284;28;20045;-76
2022/08/05 04:39:04;;;;;;;12.13;6.95;;;;;;;17.67;99.17;101439.13;4994647;28;20019;-77
2022/08/05 04:41:30;;;;;;;13.05;6.97;;;;;;;17.63;98.83;101443.88;4991672;28;20032;-78
2022/08/05 04:43:56;;;;;;;15.05;7.05;;;;;;;17.68;99.41;101449.63;4994250;28;20026;-77
2022/08/05 04:46:21;;;;;;;14.98;7.45;;;;;;;17.65;98.43;101443.72;4993530;28;20775;-77
2022/08/05 04:48:46;;;;;;;13.80;7.40;;;;;;;17.68;98.33;101441.66;4992468;28;20033;-78
2022/08/05 04:51:12;;;;;;;20.23;7.47;;;;;;;17.68;97.88;101438.97;4994078;28;20060;-78
2022/08/05 04:53:38;;;;;;;17.83;7.35;;;;;;;17.62;98.41;101441.34;4993906;28;20109;-78
2022/08/05 04:56:05;;;;;;;13.65;7.40;;;;;;;17.68;98.48;101443.47;4992864;28;20022;-78
2022/08/05 04:58:30;;;;;;;12.70;7.07;;;;;;;17.65;98.43;101438.41;4993377;28;20038;-78
2022/08/05 05:00:55;;;;;;;18.25;7.25;;;;;;;17.66;96.93;101437.41;4993626;28;20046;-77
2022/08/05 05:03:20;;;;;;;16.80;7.55;;;;;;;17.66;97.42;101443.59;4992115;28;20088;-77
2022/08/05 05:05:46;;;;;;;18.08;7.43;;;;;;;17.66;97.84;101442.75;4994060;28;20030;-77
2022/08/05 05:08:12;;;;;;;14.50;7.00;;;;;;;17.66;97.63;101438.25;4991898;28;20032;-78
2022/08/05 05:10:43;;;;;;;20.63;8.02;;;;;;;17.72;99.20;101447.50;4993796;28;20037;-77
2022/08/05 05:13:14;;;;;;;18.58;7.13;;;;;;;17.73;97.80;101450.03;4993530;28;20117;-77
2022/08/05 05:15:40;;;;;;;14.88;6.68;;;;;;;17.69;97.19;101442.47;4991321;28;20038;-78
2022/08/05 05:18:06;;;;;;;10.75;6.65;;;;;;;17.70;97.48;101439.69;4994035;28;20081;-77
2022/08/05 05:20:32;;;;;;;14.98;6.65;;;;;;;17.68;96.86;101446.97;4993461;28;20030;-77
2022/08/05 05:23:00;;;;;;;15.93;6.90;;;;;;;17.71;96.98;101452.00;4993173;28;20448;-77
2022/08/05 05:25:26;;;;;;;18.75;7.43;;;;;;;17.71;97.71;101451.16;4992447;28;20127;-77
2022/08/05 05:27:51;;;;;;;13.48;7.10;;;;;;;17.72;99.40;101455.50;4997297;28;20060;-77
2022/08/05 05:30:17;;;;;;;11.98;7.20;;;;;;;17.74;98.95;101454.38;5010902;28;20026;-77
2022/08/05 05:32:42;;;;;;;13.98;7.15;;;;;;;17.77;98.47;101461.22;5012984;28;20033;-77
2022/08/05 05:35:09;;;;;;;11.60;6.90;;;;;;;17.73;98.10;101465.16;5012057;28;20026;-77
2022/08/05 05:37:49;;;;;;;14.27;6.95;;;;;;;17.75;98.45;101468.50;5012191;28;20033;-77
2022/08/05 05:40:16;;;;;;;13.75;6.90;;;;;;;17.71;98.13;101472.47;5011441;28;20030;-77
2022/08/05 05:42:41;;;;;;;17.15;7.38;;;;;;;17.69;97.24;101469.09;5012803;28;20110;-78
2022/08/05 05:45:07;;;;;;;13.60;6.88;;;;;;;17.69;97.75;101474.41;5012469;28;20121;-78
2022/08/05 05:47:34;;;;;;;16.50;7.10;;;;;;;17.68;97.58;101483.41;5010767;28;20034;-78
2022/08/05 05:49:59;;;;;;;15.85;6.18;;;;;;;17.62;96.93;101483.94;5013211;28;20081;-78
2022/08/05 05:52:24;;;;;;;9.00;6.30;;;;;;;17.61;97.83;101484.88;5011229;28;20022;-78
2022/08/05 05:54:50;;;;;;;13.60;6.03;;;;;;;17.66;98.37;101488.00;5012722;28;20040;-79
2022/08/05 05:57:15;;;;;;;9.73;5.93;;;;;;;17.70;98.13;101492.06;5010441;28;20022;-78
2022/08/05 05:59:40;;;;;;;11.48;5.95;;;;;;;17.74;96.68;101490.78;5012271;28;20053;-76
2022/08/05 06:02:06;;;;;;;12.60;6.32;;;;;;;17.74;96.71;101496.13;5011425;28;20021;-76
2022/08/05 06:04:31;;;;;;;10.13;5.53;;;;;;;17.74;97.59;101504.94;5011444;28;20046;-76
2022/08/05 06:06:56;;;;;;;10.05;5.60;;;;;;;17.75;96.80;101495.13;5011340;28;20061;-77
2022/08/05 06:09:21;;;;;;;11.18;5.57;;;;;;;17.71;96.13;101488.44;5011776;28;20026;-77
2022/08/05 06:11:47;;;;;;;11.07;5.10;;;;;;;17.77;96.32;101494.00;5010567;28;20026;-78
2022/08/05 06:14:12;;;;;;;11.68;5.40;;;;;;;17.78;96.58;101494.84;5011993;28;20029;-77
2022/08/05 06:16:37;;;;;;;9.88;4.90;;;;;;;17.84;95.89;101495.09;5012237;28;20021;-77
2022/08/05 06:19:04;;;;;;;13.80;5.60;;;;;;;17.93;96.50;101497.88;5012636;28;20029;-78
2022/08/05 06:21:31;;;;;;;11.43;5.40;;;;;;;17.93;96.30;101488.06;5011572;28;20446;-77
2022/08/05 06:23:57;;;;;;;14.23;5.15;;;;;;;17.93;94.98;101490.72;5011015;28;20014;-78
2022/08/05 06:26:22;;;;;;;10.60;5.38;;;;;;;18.01;95.19;101500.66;5009503;28;20095;-77
2022/08/05 06:28:47;;;;;;;11.50;5.10;;;;;;;18.06;94.96;101499.25;4999688;28;20164;-77
2022/08/05 06:31:13;;;;;;;11.50;4.88;;;;;;;18.13;94.58;101511.00;4992142;28;20037;-77
2022/08/05 06:33:38;;;;;;;11.13;5.68;;;;;;;18.16;96.23;101510.69;5005606;28;20053;-78
2022/08/05 06:36:04;;;;;;;9.63;4.82;;;;;;;18.19;94.20;101503.41;5012205;28;20076;-78
2022/08/05 06:38:29;;;;;;;8.60;5.32;;;;;;;18.22;96.80;101509.25;5011267;28;20080;-77
2022/08/05 06:40:54;;;;;;;12.60;5.40;;;;;;;18.26;94.51;101509.81;5011702;28;20396;-77
2022/08/05 06:43:20;;;;;;;11.90;5.05;;;;;;;18.37;94.86;101518.44;5007306;28;20102;-77
2022/08/05 06:45:45;;;;;;;13.85;4.88;;;;;;;18.36;93.04;101518.59;5011837;28;20033;-77
2022/08/05 06:48:10;;;;;;;13.35;4.90;;;;;;;18.36;91.93;101527.41;5011079;28;20033;-77
2022/08/05 06:50:36;;;;;;;10.88;5.78;;;;;;;18.44;92.82;101530.22;5011701;28;20053;-77
2022/08/05 06:53:01;;;;;;;11.85;5.65;;;;;;;18.39;92.11;101531.63;5011552;28;20373;-77
2022/08/05 06:55:26;;;;;;;11.27;5.63;;;;;;;18.37;91.86;101544.25;5008927;28;20033;-77
2022/08/05 06:57:51;;;;;;;12.80;4.72;;;;;;;18.32;91.44;101543.84;5011614;28;20068;-77
2022/08/05 07:00:20;;;;;;;10.80;4.40;;;;;;;18.32;91.98;101549.19;5010555;28;20028;-77
2022/08/05 07:02:46;;;;;;;9.82;4.97;;;;;;;18.32;92.16;101559.84;5011443;28;20025;-78
2022/08/05 07:05:13;;;;;;;10.68;4.75;;;;;;;18.40;92.53;101559.94;5011212;28;20148;-77
2022/08/05 07:07:39;;;;;;;11.73;4.82;;;;;;;18.41;92.58;101554.50;5009229;28;20053;-77
2022/08/05 07:10:06;;;;;;;11.93;4.65;;;;;;;18.39;91.30;101555.59;5011535;28;20080;-77
2022/08/05 07:17:59;;;;;;;8.70;4.35;;;;;;;18.57;91.81;101548.50;5011551;28;20041;-77
2022/08/05 07:20:24;;;;;;;10.93;4.05;;;;;;;18.62;89.25;101559.59;5010548;28;20473;-77
2022/08/05 07:22:50;;;;;;;10.50;4.00;;;;;;;18.75;88.81;101561.91;5009120;28;20030;-77
2022/08/05 07:25:15;;;;;;;8.65;3.75;;;;;;;18.93;89.23;101567.28;5010858;28;20049;-77
2022/08/05 07:27:40;;;;;;;9.25;4.13;;;;;;;19.15;89.90;101564.19;5007915;28;20018;-78
2022/08/05 07:30:06;;;;;;;8.73;4.15;;;;;;;19.26;88.23;101581.81;4989648;28;20488;-77
2022/08/05 07:32:36;;;;;;;7.30;3.63;;;;;;;19.35;86.68;101587.06;4995894;28;20077;-77
2022/08/05 07:35:10;;;;;;;11.55;3.75;;;;;;;19.39;85.67;101585.78;5011116;28;20105;-77
2022/08/05 07:37:36;;;;;;;6.65;3.10;;;;;;;19.47;85.74;101584.16;5008868;28;20117;-77
2022/08/05 07:40:02;;;;;;;6.40;3.28;;;;;;;19.56;83.27;101585.94;5008829;28;20494;-77
2022/08/05 07:42:27;;;;;;;6.15;2.65;;;;;;;19.63;82.77;101592.38;5008555;28;20021;-77
2022/08/05 07:44:52;;;;;;;6.60;2.53;;;;;;;19.65;79.98;101590.38;5011513;28;20025;-77
2022/08/05 07:47:18;;;;;;;7.57;2.28;;;;;;;19.57;77.79;101587.63;5008817;28;20480;-77
2022/08/05 07:49:43;;;;;;;5.10;2.30;;;;;;;19.55;79.42;101597.59;5008758;28;20128;-78
2022/08/05 07:52:09;;;;;;;5.80;2.55;;;;;;;19.50;78.43;101600.72;5009309;28;20113;-77
2022/08/05 07:54:34;;;;;;;10.60;2.78;;;;;;;19.34;79.09;101593.41;5009128;28;20444;-77
2022/08/05 07:57:01;;;;;;;7.40;2.70;;;;;;;19.33;79.62;101599.72;5010244;28;20111;-77
2022/08/05 07:59:26;;;;;;;11.07;2.70;;;;;;;19.45;80.32;101599.50;5009893;28;20030;-78
2022/08/05 08:01:51;;;;;;;7.25;2.38;;;;;;;19.57;79.55;101604.47;5010690;28;20048;-77
2022/08/05 08:04:17;;;;;;;10.13;2.83;;;;;;;19.66;78.92;101608.91;5009827;28;20041;-77
2022/08/05 08:06:43;;;;;;;5.65;2.30;;;;;;;19.85;77.33;101607.88;5010562;28;20033;-78
2022/08/05 08:09:09;;;;;;;7.20;2.50;;;;;;;20.11;77.41;101601.72;5009033;28;20034;-78
2022/08/05 08:11:34;;;;;;;5.25;2.00;;;;;;;20.45;75.37;101602.66;5008483;28;20109;-78
2022/08/05 08:14:00;;;;;;;5.18;2.53;;;;;;;20.82;77.01;101606.81;5010549;28;20030;-78
2022/08/05 08:16:25;;;;;;;7.47;2.05;;;;;;;21.11;70.52;101612.56;5008339;28;20076;-78
2022/08/05 08:18:51;;;;;;;6.75;2.45;;;;;;;21.24;71.89;101604.97;5010126;28;20032;-78
2022/08/05 08:21:16;;;;;;;6.63;1.92;;;;;;;21.33;71.19;101610.31;5010157;28;20110;-79
2022/08/05 08:23:41;;;;;;;5.50;2.10;;;;;;;21.38;71.84;101616.03;5010240;28;20101;-78
2022/08/05 08:26:07;;;;;;;5.53;2.03;;;;;;;21.46;71.20;101621.38;5010290;28;20550;-78
2022/08/05 08:28:32;;;;;;;6.97;1.88;;;;;;;21.19;68.56;101625.97;5000023;28;20130;-78
2022/08/05 08:30:57;;;;;;;7.53;2.40;;;;;;;21.01;69.17;101637.81;4990737;28;20300;-77
2022/08/05 08:33:23;;;;;;;5.43;1.95;;;;;;;20.93;69.46;101634.09;4989480;28;20085;-77
2022/08/05 08:35:48;;;;;;;4.38;2.33;;;;;;;20.91;69.95;101637.94;4990843;28;20034;-77
2022/08/05 08:38:15;;;;;;;3.90;1.83;;;;;;;20.87;70.53;101636.59;4989273;28;20459;-77
2022/08/05 08:40:41;;;;;;;8.23;2.25;;;;;;;20.85;70.79;101628.75;4989860;28;20106;-77
2022/08/05 08:43:11;;;;;;;4.28;1.83;;;;;;;20.90;69.48;101636.28;4989728;28;20014;-77
2022/08/05 08:45:37;;;;;;;6.22;2.15;;;;;;;20.88;70.08;101640.94;4989096;28;20042;-77
2022/08/05 08:48:05;;;;;;;4.40;1.98;;;;;;;20.84;73.30;101647.63;4988992;28;20034;-77
2022/08/05 08:50:34;;;;;;;4.75;1.85;;;;;;;20.88;70.75;101649.81;4989328;28;20077;-77
2022/08/05 08:53:07;;;;;;;7.05;2.10;;;;;;;20.80;71.39;101663.13;4993784;28;20026;-77
2022/08/05 08:55:33;;;;;;;6.47;1.90;;;;;;;20.83;72.12;101656.66;4993691;28;20026;-77
2022/08/05 08:57:59;;;;;;;6.65;1.98;;;;;;;20.99;72.07;101662.06;4994284;28;20060;-78
2022/08/05 09:00:26;;;;;;;5.03;1.70;;;;;;;21.17;70.93;101659.25;4993102;28;20041;-77
2022/08/05 09:02:52;;;;;;;8.27;2.33;;;;;;;21.27;70.21;101660.84;4993166;28;20057;-77
2022/08/05 09:05:18;;;;;;;6.95;1.85;;;;;;;21.36;68.92;101672.41;4991895;28;20034;-76
2022/08/05 09:07:43;;;;;;;4.30;1.83;;;;;;;21.56;68.86;101675.63;4993466;28;20030;-76
2022/08/05 09:10:09;;;;;;;5.53;2.17;;;;;;;21.78;68.16;101674.16;4993808;28;20037;-77
2022/08/05 09:12:34;;;;;;;5.47;2.03;;;;;;;22.10;68.22;101681.41;4992933;28;20121;-76
2022/08/05 09:15:04;;;;;;;4.15;1.70;;;;;;;22.23;65.99;101676.34;4995030;28;20023;-77
2022/08/05 09:17:30;;;;;;;6.32;2.00;;;;;;;22.43;66.46;101674.16;4991917;28;20117;-77
2022/08/05 09:19:56;;;;;;;4.60;1.80;;;;;;;22.18;63.97;101676.03;4993874;28;20478;-77
2022/08/05 09:22:21;;;;;;;6.03;1.77;;;;;;;21.85;66.27;101684.03;4992636;28;20062;-77
2022/08/05 09:24:58;;;;;;;3.65;1.70;;;;;;;21.67;67.95;101686.03;4992448;28;20030;-77
2022/08/05 09:27:34;;;;;;;5.70;1.70;;;;;;;21.62;66.64;101691.06;4993309;28;20080;-77
2022/08/05 09:30:00;;;;;;;3.97;1.40;;;;;;;21.41;64.84;101691.50;5012774;28;20038;-77
2022/08/05 09:32:36;;;;;;;5.28;1.60;;;;;;;21.54;66.69;101694.53;5006865;28;20077;-77
2022/08/05 09:35:13;;;;;;;5.57;1.35;;;;;;;21.81;63.32;101701.44;4992701;28;20045;-77
2022/08/05 09:37:48;;;;;;;4.70;1.20;;;;;;;22.14;63.01;101693.47;4994469;28;20034;-77
2022/08/05 09:40:30;;;;;;;6.40;1.50;;;;;;;22.48;61.99;101698.63;4993340;28;20387;-76
2022/08/05 09:42:56;;;;;;;4.07;1.40;;;;;;;22.68;60.82;101696.38;4992881;28;20065;-77
2022/08/05 09:45:33;;;;;;;3.92;1.40;;;;;;;23.01;59.80;101700.66;4992654;28;20054;-77
2022/08/05 09:47:59;;;;;;;3.17;1.10;;;;;;;23.21;59.49;101694.88;4993383;28;20411;-77
2022/08/05 09:50:37;;;;;;;5.78;1.50;;;;;;;23.43;59.07;101699.47;4992097;28;20113;-77
2022/08/05 09:53:02;;;;;;;5.63;1.40;;;;;;;23.24;56.71;101699.91;4991879;28;20022;-77
2022/08/05 09:55:34;;;;;;;4.30;1.27;;;;;;;23.52;57.65;101714.50;4992583;28;20304;-76
2022/08/05 09:58:10;;;;;;;2.47;1.00;;;;;;;23.77;54.93;101706.34;4992596;28;20472;-77
2022/08/05 10:00:35;;;;;;;5.03;1.38;;;;;;;23.62;51.56;101708.97;4991507;28;20037;-76
2022/08/05 10:03:08;;;;;;;2.67;0.93;;;;;;;23.26;50.92;101711.31;4990678;28;20025;-77
2022/08/05 10:05:34;;;;;;;5.38;1.10;;;;;;;23.07;53.30;101715.25;4991652;28;20030;-76
2022/08/05 10:08:05;;;;;;;1.75;0.70;;;;;;;22.93;52.53;101714.13;4993068;28;20030;-76
2022/08/05 10:10:49;;;;;;;3.17;1.00;;;;;;;23.03;52.61;101720.13;4991575;28;20555;-76
2022/08/05 10:13:29;;;;;;;4.63;1.08;;;;;;;23.22;53.17;101720.75;4992125;28;20022;-77
2022/08/05 10:15:57;;;;;;;2.92;0.82;;;;;;;23.16;52.74;101721.41;4991524;28;20030;-76
2022/08/05 10:18:24;;;;;;;5.13;1.27;;;;;;;23.01;51.12;101729.38;4991528;28;20396;-76
2022/08/05 10:20:55;;;;;;;4.60;1.20;;;;;;;22.69;53.36;101727.56;4992687;28;20057;-76
2022/08/05 10:23:32;;;;;;;4.57;1.00;;;;;;;22.83;53.51;101726.91;4990512;28;20023;-76
2022/08/05 10:26:00;;;;;;;3.10;0.93;;;;;;;22.88;52.43;101731.75;4991828;28;20089;-76
2022/08/05 10:28:26;;;;;;;4.80;1.00;;;;;;;23.06;49.97;101735.88;4998886;28;20054;-76
2022/08/05 10:30:53;;;;;;;3.88;0.88;;;;;;;23.14;48.63;101726.97;5010710;28;20038;-76
2022/08/05 10:33:19;;;;;;;4.45;1.10;;;;;;;23.20;48.91;101720.88;4999300;28;20030;-76
2022/08/05 10:35:45;;;;;;;4.53;0.90;;;;;;;23.24;47.16;101727.59;4990965;28;20428;-76
2022/08/05 10:38:12;;;;;;;2.55;0.80;;;;;;;23.40;48.62;101726.69;4992040;28;20022;-77
2022/08/05 10:41:12;;;;;;;2.75;0.70;;;;;;;23.63;49.66;101737.50;4990194;28;20372;-77
2022/08/05 10:44:11;;;;;;;5.10;1.02;;;;;;;23.58;50.04;101738.00;4990697;28;20034;-76
2022/08/05 10:46:50;;;;;;;2.42;0.70;;;;;;;23.43;49.67;101735.22;4979663;28;20052;-76
2022/08/05 10:49:16;;;;;;;2.35;0.75;;;;;;;23.35;47.38;101734.44;4991739;28;20109;-76
2022/08/05 10:51:56;;;;;;;3.40;0.82;;;;;;;23.57;48.35;101741.72;4991679;28;20141;-76
2022/08/05 10:54:23;;;;;;;2.30;0.80;;;;;;;23.52;46.00;101746.75;4989472;28;20034;-76
2022/08/05 10:56:56;;;;;;;1.77;0.73;;;;;;;23.50;44.96;101748.78;4990494;28;20216;-76
2022/08/05 10:59:29;;;;;;;2.10;0.57;;;;;;;23.56;45.17;101755.31;4991263;28;20026;-76
2022/08/05 11:02:09;;;;;;;4.22;0.68;;;;;;;23.57;46.29;101751.63;4990402;28;20030;-76
2022/08/05 11:04:53;;;;;;;1.95;0.57;;;;;;;23.71;45.26;101750.88;4991573;28;20027;-76
2022/08/05 11:07:20;;;;;;;2.83;0.60;;;;;;;23.88;44.49;101757.00;4990442;28;20104;-76
2022/08/05 11:09:50;;;;;;;4.25;1.20;;;;;;;23.84;44.46;101764.56;4991654;28;20429;-76
2022/08/05 11:12:38;;;;;;;1.05;0.50;;;;;;;23.82;43.91;101761.22;4989922;28;20041;-77
2022/08/05 11:15:04;;;;;;;3.08;0.60;;;;;;;23.59;43.75;101766.56;4989665;28;20506;-77
2022/08/05 11:17:33;;;;;;;1.70;0.57;;;;;;;23.71;42.12;101762.47;4989623;28;20443;-77
2022/08/05 11:19:59;;;;;;;0.98;0.40;;;;;;;23.87;42.29;101771.44;4990180;28;20114;-77
2022/08/05 11:22:46;;;;;;;1.85;0.63;;;;;;;24.07;45.59;101769.97;4990267;28;20400;-77
2022/08/05 11:25:34;;;;;;;3.60;0.80;;;;;;;24.01;43.76;101760.75;4991134;28;20015;-77
2022/08/05 11:28:11;;;;;;;8.52;0.82;;;;;;;23.90;43.60;101773.78;4995547;28;20049;-77
2022/08/05 11:30:55;;;;;;;3.08;0.60;;;;;;;24.02;46.05;101775.91;5009607;28;20022;-76